Meath Environmental Platform

Observations for Trim Market St

Time AQI Temp °C Hum % Pres Pa CO μg/m³ H₂S μg/m³ NO μg/m³ NO₂ μg/m³ O₃ μg/m³ SO₂ μg/m³ PM1 μg/m³ PM2.5 μg/m³ PM10 μg/m³
Wednesday 8 July 2026
23:46 1 20.9 66 56,544 0 0 0 7.3 11.02 0 0 1.76 2.98
23:45 1 21 66 56,573 0 0 0 10.38 12.18 0 0 1.76 2.98
23:40 1 21.1 66 56,681 0 0 0 3.28 15.17 0 0.71 2.76 4.27
23:38 1 21.1 66 56,706 0 0 0 6.8 10.42 0 0 1.78 2.96
23:37 1 21.1 66 56,725 0 0 0 5.41 11.45 0 0 1.78 2.96
23:36 1 21.2 66 56,739 0 0 0 6.39 14 0 0.71 2.28 3.61
23:35 1 21.2 66 56,759 0 0 0 6.7 12.65 0 0 1.79 2.95
23:34 1 21.2 66 56,782 0 0 0 6.7 11.57 0 0 2.28 3.61
23:33 1 21.2 65 56,801 0 0 0 5.01 12.03 0 0 1.79 2.95
23:32 1 21.3 65 56,813 0 0 0 6.78 15.12 0 0 1.79 2.95
23:31 1 21.3 65 56,830 0 0 0 5.38 10.46 0 1.43 2.29 3.6
23:30 1 21.3 65 56,851 0 0 0 6.99 15.83 0 0 1.3 2.29
23:29 1 21.4 65 56,871 0 0 0 6.98 15.98 0 0 1.31 2.29
23:28 1 21.4 65 56,895 0 0 0 6.29 9.86 0 0 1.81 2.94
23:27 1 21.4 65 56,922 0 0 0 6.9 10.47 0 0 1.81 4.25
23:26 1 21.5 65 56,948 0 0 0 6.98 10.59 0 0 2.31 3.59
23:25 1 21.5 65 56,965 0 0 0 5.48 14.73 0 0 2.31 4.24
23:22 1 21.5 65 56,989 0 0 0 6.6 18.52 0 0 2.31 3.58
23:21 1 21.6 65 57,001 0 0 0 7.08 12.65 0 0.71 1.82 2.92
23:15 1 21.7 64 57,117 0 0 0 8.38 14.83 0 0.71 1.83 2.91